Time;durP1;ratioP1;P1;durP2;ratioP2;P2;SDS_P1;SDS_P2;PMS_P1;PMS_P2;Temp;Humidity;BMP_temperature;BMP_pressure;BME280_temperature;BME280_humidity;BME280_pressure;Samples;Min_cycle;Max_cycle;Signal;HPM_P1;HPM_P2
2022/01/27 00:00:31;;;;;;;19.07;18.17;;;;;;;;;;5092048;28;20229;-73
2022/01/27 00:03:12;;;;;;;23.70;21.70;;;;;;;;;;5092129;28;20197;-72
2022/01/27 00:05:45;;;;;;;23.87;21.57;;;;;;;;;;5092556;28;20198;-73
2022/01/27 00:08:15;;;;;;;21.20;19.13;;;;;;;;;;5092512;28;20185;-73
2022/01/27 00:10:51;;;;;;;19.93;18.87;;;;;;;;;;5092574;28;20201;-73
2022/01/27 00:13:19;;;;;;;18.37;17.43;;;;;;;;;;5092188;28;20189;-73
2022/01/27 00:15:48;;;;;;;18.80;17.63;;;;;;;;;;5092100;28;20193;-73
2022/01/27 00:18:17;;;;;;;19.33;18.17;;;;;;;;;;5091930;28;20225;-73
2022/01/27 00:20:45;;;;;;;20.77;19.37;;;;;;;;;;5092310;28;20264;-73
2022/01/27 00:23:12;;;;;;;21.43;20.13;;;;;;;;;;5092310;28;20229;-73
2022/01/27 00:25:38;;;;;;;24.17;22.33;;;;;;;;;;5092046;28;20698;-73
2022/01/27 00:28:07;;;;;;;18.20;17.40;;;;;;;;;;5092886;28;20194;-73
2022/01/27 00:30:33;;;;;;;18.43;17.63;;;;;;;;;;5092304;28;20197;-73
2022/01/27 00:33:00;;;;;;;19.23;17.90;;;;;;;;;;5092288;28;20233;-73
2022/01/27 00:35:27;;;;;;;18.07;17.23;;;;;;;;;;5091892;28;20239;-73
2022/01/27 00:37:53;;;;;;;20.83;19.67;;;;;;;;;;5091934;28;20614;-73
2022/01/27 00:40:21;;;;;;;19.10;18.13;;;;;;;;;;5092159;28;20308;-73
2022/01/27 00:42:48;;;;;;;19.53;18.53;;;;;;;;;;5092064;28;20202;-73
2022/01/27 00:45:16;;;;;;;22.97;21.87;;;;;;;;;;5091902;28;20196;-73
2022/01/27 00:47:43;;;;;;;19.10;18.10;;;;;;;;;;5091796;28;20220;-73
2022/01/27 00:50:10;;;;;;;18.30;17.33;;;;;;;;;;5091720;28;20198;-73
2022/01/27 00:52:40;;;;;;;19.37;18.37;;;;;;;;;;5092135;28;20236;-73
2022/01/27 00:55:08;;;;;;;22.10;20.27;;;;;;;;;;5091810;28;20194;-73
2022/01/27 00:57:48;;;;;;;19.20;18.30;;;;;;;;;;5092076;28;20194;-73
2022/01/27 01:00:22;;;;;;;18.97;18.07;;;;;;;;;;5091477;28;20240;-73
2022/01/27 01:02:53;;;;;;;21.20;19.77;;;;;;;;;;5091759;28;20566;-73
2022/01/27 01:05:37;;;;;;;19.87;18.70;;;;;;;;;;5092040;28;20661;-73
2022/01/27 01:08:33;;;;;;;19.33;18.33;;;;;;;;;;5091650;28;20251;-73
2022/01/27 01:16:33;;;;;;;18.67;17.87;;;;;;;;;;5070937;28;20201;-73
2022/01/27 01:19:08;;;;;;;19.23;18.40;;;;;;;;;;5091901;28;20189;-73
2022/01/27 01:21:51;;;;;;;19.53;18.70;;;;;;;;;;5091772;28;20304;-73
2022/01/27 01:29:56;;;;;;;21.50;20.30;;;;;;;;;;5091699;28;20204;-73
2022/01/27 01:32:38;;;;;;;18.87;17.97;;;;;;;;;;5095038;28;20194;-73
2022/01/27 01:35:08;;;;;;;19.40;18.40;;;;;;;;;;5095319;28;20251;-73
2022/01/27 01:37:38;;;;;;;18.00;17.20;;;;;;;;;;5094920;28;20671;-72
2022/01/27 01:40:06;;;;;;;20.33;19.23;;;;;;;;;;5094898;28;20739;-73
2022/01/27 01:42:32;;;;;;;20.37;19.33;;;;;;;;;;5095002;28;20312;-73
2022/01/27 01:45:01;;;;;;;19.90;18.90;;;;;;;;;;5095095;28;20229;-73
2022/01/27 01:47:30;;;;;;;21.87;20.20;;;;;;;;;;5094718;28;20194;-73
2022/01/27 01:49:56;;;;;;;21.43;20.40;;;;;;;;;;5094959;28;20276;-73
2022/01/27 01:52:23;;;;;;;18.77;17.87;;;;;;;;;;5094642;28;20229;-73
2022/01/27 01:54:50;;;;;;;19.97;19.00;;;;;;;;;;5094844;28;20193;-73
2022/01/27 01:57:16;;;;;;;19.53;18.47;;;;;;;;;;5094898;28;20200;-72
2022/01/27 01:59:43;;;;;;;18.83;18.03;;;;;;;;;;5094325;28;20261;-73
2022/01/27 02:02:12;;;;;;;19.53;18.37;;;;;;;;;;5094653;28;20261;-73
2022/01/27 02:04:40;;;;;;;20.70;19.50;;;;;;;;;;5094408;28;20190;-73
2022/01/27 02:07:15;;;;;;;17.87;16.97;;;;;;;;;;5094274;28;20225;-73
2022/01/27 02:10:02;;;;;;;19.60;18.60;;;;;;;;;;5094640;28;20203;-73
2022/01/27 02:18:01;;;;;;;17.87;17.17;;;;;;;;;;5094304;28;20181;-73
2022/01/27 02:20:29;;;;;;;16.80;16.10;;;;;;;;;;5094077;28;20247;-73
2022/01/27 02:22:56;;;;;;;17.77;17.07;;;;;;;;;;5094118;28;20758;-73
2022/01/27 02:25:23;;;;;;;18.47;17.77;;;;;;;;;;5094295;28;20190;-73
2022/01/27 02:27:52;;;;;;;19.50;18.63;;;;;;;;;;5094249;28;20193;-73
2022/01/27 02:30:19;;;;;;;31.87;29.37;;;;;;;;;;5094168;28;20194;-73
2022/01/27 02:32:46;;;;;;;19.20;18.40;;;;;;;;;;5093886;28;20706;-73
2022/01/27 02:35:12;;;;;;;19.30;18.50;;;;;;;;;;5093835;28;20190;-73
2022/01/27 02:37:41;;;;;;;19.13;18.23;;;;;;;;;;5094091;28;20699;-73
2022/01/27 02:40:08;;;;;;;20.53;19.63;;;;;;;;;;5094060;28;20193;-73
2022/01/27 02:42:35;;;;;;;21.17;20.27;;;;;;;;;;5093582;28;20355;-73
2022/01/27 02:45:04;;;;;;;21.00;20.00;;;;;;;;;;5094455;28;20196;-73
2022/01/27 02:47:31;;;;;;;22.57;21.47;;;;;;;;;;5093868;28;20194;-73
2022/01/27 02:49:57;;;;;;;21.80;20.70;;;;;;;;;;5094617;28;20285;-73
2022/01/27 02:52:24;;;;;;;21.87;20.77;;;;;;;;;;5093486;28;20194;-73
2022/01/27 02:54:52;;;;;;;23.10;21.90;;;;;;;;;;5093690;28;20277;-73
2022/01/27 02:57:20;;;;;;;21.97;20.93;;;;;;;;;;5093394;28;20232;-73
2022/01/27 02:59:47;;;;;;;22.20;21.10;;;;;;;;;;5093115;28;20232;-73
2022/01/27 03:02:13;;;;;;;20.50;19.40;;;;;;;;;;5093236;28;20221;-73
2022/01/27 03:04:40;;;;;;;22.30;21.20;;;;;;;;;;5094096;28;20198;-73
2022/01/27 03:07:07;;;;;;;22.13;21.03;;;;;;;;;;5093124;28;20642;-73
2022/01/27 03:09:35;;;;;;;23.07;21.87;;;;;;;;;;5093447;28;20193;-73
2022/01/27 03:12:06;;;;;;;21.80;20.70;;;;;;;;;;5093060;28;20276;-73
2022/01/27 03:14:33;;;;;;;20.93;19.93;;;;;;;;;;5093470;28;20613;-72
2022/01/27 03:17:00;;;;;;;21.43;20.43;;;;;;;;;;5093036;28;20254;-73
2022/01/27 03:19:28;;;;;;;21.80;20.80;;;;;;;;;;5092958;28;20202;-73
2022/01/27 03:21:55;;;;;;;21.53;20.53;;;;;;;;;;5093984;28;20316;-73
2022/01/27 03:24:22;;;;;;;20.20;19.20;;;;;;;;;;5093181;28;20194;-73
2022/01/27 03:26:49;;;;;;;20.83;19.83;;;;;;;;;;5092804;28;20668;-73
2022/01/27 03:29:18;;;;;;;21.33;20.33;;;;;;;;;;5092767;28;20240;-73
2022/01/27 03:31:45;;;;;;;21.30;20.30;;;;;;;;;;5093076;28;20222;-73
2022/01/27 03:34:12;;;;;;;21.67;20.67;;;;;;;;;;5092704;28;20753;-73
2022/01/27 03:36:39;;;;;;;20.30;19.40;;;;;;;;;;5092641;28;20282;-73
2022/01/27 03:39:07;;;;;;;21.13;20.23;;;;;;;;;;5092992;28;20258;-73
2022/01/27 03:41:35;;;;;;;22.83;21.57;;;;;;;;;;5092512;28;20232;-73
2022/01/27 03:44:03;;;;;;;20.90;20.00;;;;;;;;;;5092890;28;20232;-73
2022/01/27 03:46:31;;;;;;;20.03;19.13;;;;;;;;;;5092818;28;20229;-73
2022/01/27 03:48:57;;;;;;;19.97;18.97;;;;;;;;;;5092457;28;20229;-73
2022/01/27 03:51:24;;;;;;;19.60;18.60;;;;;;;;;;5092750;28;20204;-73
2022/01/27 03:53:51;;;;;;;19.77;18.77;;;;;;;;;;5091764;28;20726;-73
2022/01/27 03:56:17;;;;;;;19.40;18.50;;;;;;;;;;5092693;28;20225;-72
2022/01/27 03:58:44;;;;;;;18.13;17.33;;;;;;;;;;5092640;28;20273;-73
2022/01/27 04:01:11;;;;;;;21.47;20.17;;;;;;;;;;5092581;28;20200;-73
2022/01/27 04:03:39;;;;;;;20.30;19.40;;;;;;;;;;5092259;28;20248;-72
2022/01/27 04:06:08;;;;;;;22.30;21.30;;;;;;;;;;5092602;28;20251;-73
2022/01/27 04:08:37;;;;;;;22.50;21.40;;;;;;;;;;5092626;28;20585;-72
2022/01/27 04:11:03;;;;;;;24.27;22.97;;;;;;;;;;5092245;28;20213;-73
2022/01/27 04:13:30;;;;;;;23.67;22.47;;;;;;;;;;5092267;28;20194;-73
2022/01/27 04:15:57;;;;;;;22.70;21.60;;;;;;;;;;5092472;28;20229;-73
2022/01/27 04:18:23;;;;;;;20.20;19.00;;;;;;;;;;5092105;28;20235;-73
2022/01/27 04:20:52;;;;;;;22.73;21.40;;;;;;;;;;5092145;28;20193;-73
2022/01/27 04:23:19;;;;;;;19.53;18.63;;;;;;;;;;5092267;28;20301;-73
2022/01/27 04:25:46;;;;;;;18.00;17.20;;;;;;;;;;5092421;28;20229;-73
2022/01/27 04:28:16;;;;;;;16.87;16.17;;;;;;;;;;5092333;28;20272;-73
2022/01/27 04:30:43;;;;;;;20.20;19.40;;;;;;;;;;5092078;28;20190;-73
2022/01/27 04:33:10;;;;;;;19.87;19.07;;;;;;;;;;5091996;28;20202;-73
2022/01/27 04:35:41;;;;;;;20.60;19.70;;;;;;;;;;5092272;28;20221;-73
2022/01/27 04:38:21;;;;;;;17.10;16.30;;;;;;;;;;5092012;28;20193;-73
2022/01/27 04:40:55;;;;;;;17.57;16.77;;;;;;;;;;5091988;28;20213;-73
2022/01/27 04:43:29;;;;;;;18.27;17.57;;;;;;;;;;5091876;28;20209;-73
2022/01/27 04:46:04;;;;;;;16.67;15.93;;;;;;;;;;5091938;28;20186;-73
2022/01/27 04:48:37;;;;;;;17.60;16.87;;;;;;;;;;5092166;28;20185;-73
2022/01/27 04:51:07;;;;;;;17.00;16.20;;;;;;;;;;5092121;28;20189;-73
2022/01/27 04:53:39;;;;;;;18.63;17.53;;;;;;;;;;5092097;28;20274;-73
2022/01/27 04:56:09;;;;;;;18.50;17.53;;;;;;;;;;5091796;28;20675;-73
2022/01/27 04:58:36;;;;;;;18.37;17.47;;;;;;;;;;5092077;28;20252;-73
2022/01/27 05:01:04;;;;;;;17.80;16.90;;;;;;;;;;5091547;28;20618;-73
2022/01/27 05:03:38;;;;;;;18.57;17.67;;;;;;;;;;5091916;28;20279;-73
2022/01/27 05:06:05;;;;;;;17.20;16.40;;;;;;;;;;5095777;28;20194;-73
2022/01/27 05:08:32;;;;;;;18.50;17.50;;;;;;;;;;5095805;28;20233;-73
2022/01/27 05:11:03;;;;;;;18.83;17.73;;;;;;;;;;5095413;28;20255;-73
2022/01/27 05:13:38;;;;;;;17.03;16.33;;;;;;;;;;5095665;28;20221;-73
2022/01/27 05:16:05;;;;;;;18.77;17.57;;;;;;;;;;5095665;28;20185;-73
2022/01/27 05:18:31;;;;;;;17.70;16.90;;;;;;;;;;5095657;28;20242;-73
2022/01/27 05:20:58;;;;;;;17.37;16.57;;;;;;;;;;5095597;28;20193;-73
2022/01/27 05:23:25;;;;;;;16.70;16.00;;;;;;;;;;5095107;28;20265;-73
2022/01/27 05:25:52;;;;;;;16.00;15.30;;;;;;;;;;5095482;28;20193;-72
2022/01/27 05:28:20;;;;;;;17.73;16.57;;;;;;;;;;5095342;28;20216;-73
2022/01/27 05:30:46;;;;;;;19.23;17.97;;;;;;;;;;5095363;28;20243;-73
2022/01/27 05:33:13;;;;;;;18.60;17.80;;;;;;;;;;5095334;28;20198;-73
2022/01/27 05:35:40;;;;;;;18.23;17.43;;;;;;;;;;5095138;28;20209;-73
2022/01/27 05:38:06;;;;;;;17.23;16.43;;;;;;;;;;5094925;28;20197;-73
2022/01/27 05:40:33;;;;;;;17.90;17.00;;;;;;;;;;5095167;28;20281;-73
2022/01/27 05:43:00;;;;;;;19.03;18.07;;;;;;;;;;5095044;28;20318;-73
2022/01/27 05:45:28;;;;;;;18.33;17.47;;;;;;;;;;5095108;28;20563;-73
2022/01/27 05:47:55;;;;;;;16.80;16.13;;;;;;;;;;5094750;28;20224;-73
2022/01/27 05:50:21;;;;;;;17.80;16.93;;;;;;;;;;5094680;28;20226;-73
2022/01/27 05:52:48;;;;;;;17.27;16.63;;;;;;;;;;5094940;28;20556;-73
2022/01/27 05:55:15;;;;;;;17.23;16.53;;;;;;;;;;5094888;28;20198;-73
2022/01/27 05:57:41;;;;;;;16.67;16.07;;;;;;;;;;5094850;28;20608;-73
2022/01/27 06:00:10;;;;;;;17.67;16.87;;;;;;;;;;5094460;28;20291;-73
2022/01/27 06:02:38;;;;;;;17.10;16.30;;;;;;;;;;5094715;28;20261;-73
2022/01/27 06:05:05;;;;;;;18.83;17.30;;;;;;;;;;5094714;28;20193;-73
2022/01/27 06:07:32;;;;;;;16.83;16.13;;;;;;;;;;5094401;28;20198;-73
2022/01/27 06:09:59;;;;;;;15.80;15.10;;;;;;;;;;5094311;28;20661;-73
2022/01/27 06:12:26;;;;;;;17.77;16.90;;;;;;;;;;5094298;28;20683;-72
2022/01/27 06:14:52;;;;;;;15.87;15.27;;;;;;;;;;5094271;28;20780;-73
2022/01/27 06:17:19;;;;;;;16.97;16.27;;;;;;;;;;5093850;28;20193;-72
2022/01/27 06:19:48;;;;;;;16.13;15.33;;;;;;;;;;5094470;28;20728;-73
2022/01/27 06:22:16;;;;;;;17.00;16.40;;;;;;;;;;5093964;28;20225;-73
2022/01/27 06:24:43;;;;;;;16.20;15.60;;;;;;;;;;5094333;28;20194;-72
2022/01/27 06:27:10;;;;;;;17.63;16.93;;;;;;;;;;5094005;28;20204;-73
2022/01/27 06:29:36;;;;;;;17.47;16.77;;;;;;;;;;5093960;28;20281;-73
2022/01/27 06:32:04;;;;;;;19.73;18.83;;;;;;;;;;5094238;28;20280;-73
2022/01/27 06:34:30;;;;;;;17.83;17.10;;;;;;;;;;5094119;28;20190;-73
2022/01/27 06:36:59;;;;;;;18.43;17.53;;;;;;;;;;5093805;28;20660;-73
2022/01/27 06:39:25;;;;;;;16.73;15.87;;;;;;;;;;5093722;28;20734;-73
2022/01/27 06:41:52;;;;;;;18.70;17.90;;;;;;;;;;5093905;28;20198;-73
2022/01/27 06:44:19;;;;;;;17.77;16.97;;;;;;;;;;5093963;28;20286;-73
2022/01/27 06:46:46;;;;;;;20.23;18.87;;;;;;;;;;5093571;28;20234;-73
2022/01/27 06:49:16;;;;;;;20.60;19.40;;;;;;;;;;5093890;28;20190;-73
2022/01/27 06:51:43;;;;;;;18.63;17.67;;;;;;;;;;5093808;28;20259;-73
2022/01/27 06:54:11;;;;;;;19.50;18.30;;;;;;;;;;5093464;28;20202;-73
2022/01/27 06:56:38;;;;;;;18.27;17.23;;;;;;;;;;5093430;28;20227;-73
2022/01/27 06:59:05;;;;;;;17.13;16.13;;;;;;;;;;5093394;28;20193;-73
2022/01/27 07:01:31;;;;;;;15.90;15.10;;;;;;;;;;5093373;28;20738;-73
2022/01/27 07:03:58;;;;;;;17.87;16.93;;;;;;;;;;5093500;28;20225;-72
2022/01/27 07:06:25;;;;;;;17.80;16.90;;;;;;;;;;5093201;28;20276;-73
2022/01/27 07:08:51;;;;;;;16.33;15.53;;;;;;;;;;5093492;28;20270;-73
2022/01/27 07:11:20;;;;;;;19.37;18.10;;;;;;;;;;5093160;28;20668;-73
2022/01/27 07:13:46;;;;;;;17.50;16.27;;;;;;;;;;5093418;28;20221;-73
2022/01/27 07:16:13;;;;;;;17.83;16.93;;;;;;;;;;5093367;28;20247;-73
2022/01/27 07:18:40;;;;;;;18.50;17.57;;;;;;;;;;5093373;28;20546;-73
2022/01/27 07:21:07;;;;;;;17.93;17.03;;;;;;;;;;5093262;28;20244;-73
2022/01/27 07:23:33;;;;;;;18.80;17.80;;;;;;;;;;5092875;28;20317;-73
2022/01/27 07:26:00;;;;;;;19.83;18.83;;;;;;;;;;5093232;28;20255;-73
2022/01/27 07:28:28;;;;;;;21.87;20.57;;;;;;;;;;5091915;28;20749;-73
2022/01/27 07:30:55;;;;;;;18.80;17.87;;;;;;;;;;5093154;28;20229;-73
2022/01/27 07:33:21;;;;;;;19.43;18.40;;;;;;;;;;5092719;28;20302;-73
2022/01/27 07:35:48;;;;;;;18.80;18.00;;;;;;;;;;5092721;28;20190;-73
2022/01/27 07:38:15;;;;;;;20.60;19.37;;;;;;;;;;5092682;28;20202;-72
2022/01/27 07:40:41;;;;;;;20.03;18.97;;;;;;;;;;5092613;28;20216;-73
2022/01/27 07:43:10;;;;;;;19.03;17.40;;;;;;;;;;5092829;28;20653;-73
2022/01/27 07:45:38;;;;;;;17.90;17.03;;;;;;;;;;5092559;28;20220;-73
2022/01/27 07:48:05;;;;;;;17.70;16.80;;;;;;;;;;5092882;28;20201;-73
2022/01/27 07:50:32;;;;;;;20.27;19.03;;;;;;;;;;5092462;28;20755;-72
2022/01/27 07:52:58;;;;;;;18.77;17.77;;;;;;;;;;5092521;28;20196;-73
2022/01/27 07:55:25;;;;;;;19.20;17.93;;;;;;;;;;5092731;28;20201;-72
2022/01/27 07:57:52;;;;;;;16.90;16.20;;;;;;;;;;5092409;28;20670;-72
2022/01/27 08:00:19;;;;;;;17.07;16.37;;;;;;;;;;5092185;28;20324;-72
2022/01/27 08:02:47;;;;;;;21.53;19.80;;;;;;;;;;5092547;28;20222;-73
2022/01/27 08:05:14;;;;;;;18.77;17.93;;;;;;;;;;5092255;28;20732;-72
2022/01/27 08:07:40;;;;;;;18.80;17.90;;;;;;;;;;5092612;28;20196;-72
2022/01/27 08:10:08;;;;;;;20.73;19.50;;;;;;;;;;5092537;28;20194;-73
2022/01/27 08:12:39;;;;;;;20.33;19.17;;;;;;;;;;5092522;28;20202;-72
2022/01/27 08:15:06;;;;;;;18.17;17.13;;;;;;;;;;5092514;28;20186;-72
2022/01/27 08:17:33;;;;;;;17.73;17.03;;;;;;;;;;5092168;28;20777;-72
2022/01/27 08:20:01;;;;;;;19.63;18.63;;;;;;;;;;5092075;28;20733;-72
2022/01/27 08:22:28;;;;;;;19.70;18.50;;;;;;;;;;5092021;28;20737;-72
2022/01/27 08:24:54;;;;;;;17.03;16.23;;;;;;;;;;5092340;28;20290;-72
2022/01/27 08:27:26;;;;;;;17.97;17.03;;;;;;;;;;5092312;28;20202;-72
2022/01/27 08:29:58;;;;;;;22.00;20.13;;;;;;;;;;5092336;28;20243;-72
2022/01/27 08:32:45;;;;;;;18.03;17.23;;;;;;;;;;5091993;28;20197;-72
2022/01/27 08:35:13;;;;;;;22.97;21.37;;;;;;;;;;5091318;28;20194;-72
2022/01/27 08:37:40;;;;;;;17.73;16.97;;;;;;;;;;5092261;28;20276;-73
2022/01/27 08:40:07;;;;;;;22.67;21.47;;;;;;;;;;5094636;28;20690;-72
2022/01/27 08:42:34;;;;;;;20.30;19.40;;;;;;;;;;5096224;28;20225;-72
2022/01/27 08:45:01;;;;;;;20.57;19.57;;;;;;;;;;5095990;28;20284;-72
2022/01/27 08:47:27;;;;;;;22.80;21.53;;;;;;;;;;5095877;28;20280;-72
2022/01/27 08:49:54;;;;;;;19.77;18.70;;;;;;;;;;5095889;28;20190;-72
2022/01/27 08:52:22;;;;;;;20.50;19.50;;;;;;;;;;5095848;28;20202;-72
2022/01/27 08:54:49;;;;;;;23.90;22.53;;;;;;;;;;5095769;28;20656;-73
2022/01/27 08:57:16;;;;;;;21.67;20.43;;;;;;;;;;5096009;28;20197;-72
2022/01/27 08:59:42;;;;;;;23.73;22.13;;;;;;;;;;5095654;28;20324;-72
2022/01/27 09:02:09;;;;;;;22.53;21.33;;;;;;;;;;5095956;28;20204;-72
2022/01/27 09:04:36;;;;;;;26.27;24.30;;;;;;;;;;5095579;28;20222;-72
2022/01/27 09:07:03;;;;;;;19.93;19.07;;;;;;;;;;5095507;28;20243;-72
2022/01/27 09:09:31;;;;;;;20.27;19.47;;;;;;;;;;5095842;28;20225;-72
2022/01/27 09:11:59;;;;;;;22.70;21.53;;;;;;;;;;5095690;28;20193;-72
2022/01/27 09:14:29;;;;;;;24.53;22.83;;;;;;;;;;5095768;28;20575;-72
2022/01/27 09:16:56;;;;;;;21.77;20.10;;;;;;;;;;5095707;28;20182;-72
2022/01/27 09:19:25;;;;;;;21.77;20.57;;;;;;;;;;5095328;28;20719;-72
2022/01/27 09:21:53;;;;;;;22.10;20.40;;;;;;;;;;5095617;28;20194;-72
2022/01/27 09:24:26;;;;;;;19.30;18.33;;;;;;;;;;5095170;28;20232;-72
2022/01/27 09:27:00;;;;;;;23.10;21.40;;;;;;;;;;5095546;28;20251;-72
2022/01/27 09:29:27;;;;;;;19.87;18.67;;;;;;;;;;5095160;28;20193;-73
2022/01/27 09:31:54;;;;;;;20.90;19.70;;;;;;;;;;5095375;28;20254;-72
2022/01/27 09:34:21;;;;;;;25.07;23.17;;;;;;;;;;5095010;28;20281;-72
2022/01/27 09:36:49;;;;;;;25.97;24.23;;;;;;;;;;5095556;28;20543;-72
2022/01/27 09:39:16;;;;;;;23.03;21.63;;;;;;;;;;5094998;28;20201;-72
2022/01/27 09:41:43;;;;;;;27.87;25.43;;;;;;;;;;5095234;28;20197;-71
2022/01/27 09:44:13;;;;;;;25.63;22.73;;;;;;;;;;5095059;28;20235;-71
2022/01/27 09:46:41;;;;;;;23.20;21.40;;;;;;;;;;5094774;28;20194;-72
2022/01/27 09:49:13;;;;;;;25.93;23.50;;;;;;;;;;5094851;28;20201;-71
2022/01/27 09:51:42;;;;;;;27.47;25.37;;;;;;;;;;5093976;28;20190;-71
2022/01/27 09:54:09;;;;;;;26.20;23.93;;;;;;;;;;5094697;28;20194;-70
2022/01/27 09:56:36;;;;;;;22.57;21.07;;;;;;;;;;5094656;28;20232;-70
2022/01/27 09:59:02;;;;;;;27.70;25.23;;;;;;;;;;5094530;28;20204;-70
2022/01/27 10:01:37;;;;;;;28.57;25.93;;;;;;;;;;5094887;28;20204;-71
2022/01/27 10:04:05;;;;;;;24.63;22.77;;;;;;;;;;5094358;28;20617;-71
2022/01/27 10:06:33;;;;;;;23.40;21.77;;;;;;;;;;5094788;28;20263;-71
2022/01/27 10:09:17;;;;;;;23.97;22.27;;;;;;;;;;5094389;28;20228;-71
2022/01/27 10:11:46;;;;;;;23.53;21.67;;;;;;;;;;5094671;28;20683;-71
2022/01/27 10:14:16;;;;;;;23.17;21.87;;;;;;;;;;5094248;28;20578;-71
2022/01/27 10:16:44;;;;;;;27.57;25.57;;;;;;;;;;5094257;28;20280;-71
2022/01/27 10:19:12;;;;;;;24.00;22.20;;;;;;;;;;5094390;28;20288;-71
2022/01/27 10:21:39;;;;;;;23.20;21.83;;;;;;;;;;5094165;28;20739;-71
2022/01/27 10:24:14;;;;;;;24.33;22.83;;;;;;;;;;5094006;28;20312;-71
2022/01/27 10:26:45;;;;;;;24.60;22.63;;;;;;;;;;5094434;28;20289;-71
2022/01/27 10:29:15;;;;;;;27.40;25.30;;;;;;;;;;5094770;28;20543;-72
2022/01/27 10:31:42;;;;;;;27.37;25.07;;;;;;;;;;5094356;28;20186;-72
2022/01/27 10:34:11;;;;;;;22.30;21.00;;;;;;;;;;5093949;28;20190;-71
2022/01/27 10:36:40;;;;;;;26.00;24.27;;;;;;;;;;5093845;28;20209;-71
2022/01/27 10:39:08;;;;;;;26.07;24.27;;;;;;;;;;5093841;28;20280;-71
2022/01/27 10:41:35;;;;;;;25.80;23.83;;;;;;;;;;5093741;28;20660;-72
2022/01/27 10:44:12;;;;;;;23.23;21.77;;;;;;;;;;5093952;28;20267;-71
2022/01/27 10:46:45;;;;;;;25.40;23.67;;;;;;;;;;5094200;28;20238;-72
2022/01/27 10:49:23;;;;;;;29.63;27.73;;;;;;;;;;5093704;28;20186;-72
2022/01/27 10:51:52;;;;;;;31.80;29.40;;;;;;;;;;5093889;28;20280;-71
2022/01/27 10:54:33;;;;;;;24.20;22.57;;;;;;;;;;5093573;28;20194;-72
2022/01/27 10:57:02;;;;;;;25.67;24.10;;;;;;;;;;5093529;28;20194;-71
2022/01/27 10:59:32;;;;;;;23.73;22.53;;;;;;;;;;5093513;28;20264;-72
2022/01/27 11:01:59;;;;;;;22.13;20.93;;;;;;;;;;5093246;28;20190;-73
2022/01/27 11:04:34;;;;;;;25.77;24.00;;;;;;;;;;5093570;28;20649;-72
2022/01/27 11:07:02;;;;;;;22.10;20.83;;;;;;;;;;5093305;28;20671;-72
2022/01/27 11:09:33;;;;;;;26.00;24.07;;;;;;;;;;5093227;28;20569;-71
2022/01/27 11:12:05;;;;;;;22.03;20.77;;;;;;;;;;5093407;28;20190;-71
2022/01/27 11:14:32;;;;;;;22.30;21.07;;;;;;;;;;5093180;28;20271;-71
2022/01/27 11:17:01;;;;;;;23.07;21.77;;;;;;;;;;5093365;28;20324;-71
2022/01/27 11:19:59;;;;;;;24.70;23.00;;;;;;;;;;5093047;28;20198;-71
2022/01/27 11:22:43;;;;;;;24.87;23.17;;;;;;;;;;5093031;28;20764;-72
2022/01/27 11:25:50;;;;;;;24.30;22.73;;;;;;;;;;5093017;28;20784;-72
2022/01/27 11:28:07;;;;;;;24.80;23.10;;;;;;;;;;5092822;28;20189;-72
2022/01/27 11:30:36;;;;;;;22.33;20.83;;;;;;;;;;5092847;28;20410;-71
2022/01/27 11:33:04;;;;;;;24.23;22.63;;;;;;;;;;5093101;28;20229;-72
2022/01/27 11:35:31;;;;;;;22.73;21.23;;;;;;;;;;5092736;28;20594;-71
2022/01/27 11:38:03;;;;;;;25.67;23.57;;;;;;;;;;5092761;28;20251;-72
2022/01/27 11:40:35;;;;;;;24.40;22.73;;;;;;;;;;5092709;28;20186;-72
2022/01/27 11:43:03;;;;;;;22.90;21.40;;;;;;;;;;5092995;28;20190;-72
2022/01/27 11:45:31;;;;;;;21.43;20.23;;;;;;;;;;5092825;28;20270;-72
2022/01/27 11:48:01;;;;;;;21.93;20.70;;;;;;;;;;5092877;28;20281;-72
2022/01/27 11:50:33;;;;;;;28.43;26.73;;;;;;;;;;5092808;28;20236;-72
2022/01/27 11:53:03;;;;;;;26.37;24.77;;;;;;;;;;5092820;28;20615;-73
2022/01/27 11:55:45;;;;;;;25.40;23.70;;;;;;;;;;5092860;28;20198;-72
2022/01/27 11:58:19;;;;;;;26.33;24.63;;;;;;;;;;5092702;28;20204;-72
2022/01/27 12:01:02;;;;;;;24.60;23.20;;;;;;;;;;5092460;28;20232;-72
2022/01/27 12:03:29;;;;;;;25.07;23.47;;;;;;;;;;5092372;28;20194;-72
2022/01/27 12:06:29;;;;;;;24.63;23.23;;;;;;;;;;5092489;28;20233;-72
2022/01/27 12:09:25;;;;;;;25.87;24.37;;;;;;;;;;5049951;28;20191;-72
2022/01/27 12:11:54;;;;;;;26.80;25.20;;;;;;;;;;5050144;28;20254;-73
2022/01/27 12:14:24;;;;;;;29.43;27.00;;;;;;;;;;5049440;28;20209;-73
2022/01/27 12:17:08;;;;;;;25.83;24.20;;;;;;;;;;5049916;28;20197;-72
2022/01/27 12:19:47;;;;;;;27.90;26.00;;;;;;;;;;5049846;28;20314;-73
2022/01/27 12:22:15;;;;;;;26.17;24.30;;;;;;;;;;5049852;28;20191;-72
2022/01/27 12:24:51;;;;;;;25.57;23.83;;;;;;;;;;5049791;28;20605;-73
2022/01/27 12:27:18;;;;;;;25.30;23.90;;;;;;;;;;5049967;28;20252;-73
2022/01/27 12:29:47;;;;;;;27.10;25.00;;;;;;;;;;5049766;28;20630;-74
2022/01/27 12:32:20;;;;;;;28.07;26.17;;;;;;;;;;5049640;28;20297;-72
2022/01/27 12:34:47;;;;;;;26.60;24.93;;;;;;;;;;5050597;28;20274;-71
2022/01/27 12:37:14;;;;;;;25.20;23.47;;;;;;;;;;5049750;28;20201;-72
2022/01/27 12:39:42;;;;;;;25.63;24.03;;;;;;;;;;5068119;28;20220;-72
2022/01/27 12:42:13;;;;;;;23.73;22.33;;;;;;;;;;5092207;28;20194;-73
2022/01/27 12:44:42;;;;;;;23.97;22.37;;;;;;;;;;5091828;28;20286;-72
2022/01/27 12:47:11;;;;;;;22.60;21.20;;;;;;;;;;5091870;28;20664;-72
2022/01/27 12:49:40;;;;;;;23.73;22.33;;;;;;;;;;5092112;28;20197;-72
2022/01/27 12:52:09;;;;;;;25.30;23.37;;;;;;;;;;5091881;28;20190;-72
2022/01/27 12:54:36;;;;;;;22.77;21.47;;;;;;;;;;5091749;28;20555;-73
2022/01/27 12:57:03;;;;;;;24.23;22.73;;;;;;;;;;5091856;28;20194;-73
2022/01/27 12:59:35;;;;;;;26.10;24.50;;;;;;;;;;5091655;28;20286;-73
2022/01/27 13:02:03;;;;;;;23.10;21.83;;;;;;;;;;5092004;28;20198;-73
2022/01/27 13:04:30;;;;;;;24.73;23.33;;;;;;;;;;5091969;28;20229;-73
2022/01/27 13:06:58;;;;;;;25.97;24.10;;;;;;;;;;5091671;28;20197;-73
2022/01/27 13:09:25;;;;;;;25.80;24.30;;;;;;;;;;5091973;28;20190;-73
2022/01/27 13:11:54;;;;;;;27.10;25.40;;;;;;;;;;5091623;28;20255;-74
2022/01/27 13:14:21;;;;;;;25.20;23.63;;;;;;;;;;5091654;28;20190;-75
2022/01/27 13:16:53;;;;;;;25.47;23.33;;;;;;;;;;5091890;28;20230;-74
2022/01/27 13:19:24;;;;;;;23.97;22.57;;;;;;;;;;5092006;28;20186;-74
2022/01/27 13:22:00;;;;;;;24.67;23.07;;;;;;;;;;5091898;28;20214;-74
2022/01/27 13:24:30;;;;;;;23.33;22.03;;;;;;;;;;5091795;28;20308;-74
2022/01/27 13:27:07;;;;;;;23.97;22.40;;;;;;;;;;5095262;28;20576;-74
2022/01/27 13:29:39;;;;;;;24.00;22.60;;;;;;;;;;5095218;28;20760;-74
2022/01/27 13:32:08;;;;;;;25.60;23.90;;;;;;;;;;5095493;28;20218;-74
2022/01/27 13:34:35;;;;;;;26.53;24.57;;;;;;;;;;5095164;28;20248;-76
2022/01/27 13:37:02;;;;;;;24.93;23.10;;;;;;;;;;5095083;28;20277;-73
2022/01/27 13:39:47;;;;;;;24.47;23.00;;;;;;;;;;5095642;28;20310;-74
2022/01/27 13:42:16;;;;;;;23.93;21.93;;;;;;;;;;5095020;28;20197;-74
2022/01/27 13:44:53;;;;;;;25.40;23.60;;;;;;;;;;5095251;28;20225;-74
2022/01/27 13:47:26;;;;;;;22.73;21.53;;;;;;;;;;5095138;28;20194;-75
2022/01/27 13:49:53;;;;;;;22.10;20.90;;;;;;;;;;5095042;28;20274;-74
2022/01/27 13:52:24;;;;;;;24.17;22.50;;;;;;;;;;5094792;28;20285;-75
2022/01/27 13:54:51;;;;;;;24.63;23.23;;;;;;;;;;5095262;28;20182;-75
2022/01/27 13:57:19;;;;;;;24.50;23.30;;;;;;;;;;5095210;28;20193;-75
2022/01/27 13:59:50;;;;;;;22.77;21.67;;;;;;;;;;5094460;28;20256;-75
2022/01/27 14:02:18;;;;;;;23.60;22.30;;;;;;;;;;5094625;28;20652;-75
2022/01/27 14:04:47;;;;;;;22.73;21.63;;;;;;;;;;5094725;28;20218;-75
2022/01/27 14:07:24;;;;;;;23.60;22.27;;;;;;;;;;5094869;28;20256;-75
2022/01/27 14:09:52;;;;;;;24.00;22.70;;;;;;;;;;5094721;28;20268;-75
2022/01/27 14:12:21;;;;;;;22.73;21.63;;;;;;;;;;5094556;28;20197;-75
2022/01/27 14:14:49;;;;;;;25.27;23.77;;;;;;;;;;5094656;28;20224;-77
2022/01/27 14:17:23;;;;;;;24.37;23.00;;;;;;;;;;5094315;28;20255;-76
2022/01/27 14:19:51;;;;;;;22.97;21.53;;;;;;;;;;5094563;28;20201;-75
2022/01/27 14:22:20;;;;;;;22.10;21.00;;;;;;;;;;5094736;28;20223;-75
2022/01/27 14:25:00;;;;;;;24.77;23.47;;;;;;;;;;5094387;28;20298;-75
2022/01/27 14:27:34;;;;;;;26.00;23.93;;;;;;;;;;5094201;28;20198;-75
2022/01/27 14:30:01;;;;;;;26.07;24.17;;;;;;;;;;5094088;28;20277;-76
2022/01/27 14:32:28;;;;;;;22.80;21.50;;;;;;;;;;5093940;28;20194;-75
2022/01/27 14:34:56;;;;;;;22.43;21.33;;;;;;;;;;5093924;28;20204;-75
2022/01/27 14:37:23;;;;;;;25.83;24.23;;;;;;;;;;5093331;28;20618;-75
2022/01/27 14:39:49;;;;;;;22.77;21.47;;;;;;;;;;5094124;28;20277;-75
2022/01/27 14:42:22;;;;;;;23.10;21.90;;;;;;;;;;5093735;28;20194;-75
2022/01/27 14:44:48;;;;;;;26.33;24.80;;;;;;;;;;5093805;28;20260;-75